• Join FlightAware (Why Join?)
  • Login
  • US Flag 
05:14AM EDT


 

Airport Tracker/Info


-or-


 

Live Flight TrackerFlight Track Log ✈ SWA1635 ✈ 07-May-2013 ✈ KOMA - KLAS

Flight Track Log - Related Links

Times and Time Zones

All times are in EDT time to prevent confusion due to time zone crossing. See the SWA1635 flight status page for this flight to view local times or setup timezone preferences in your user account.

Time Position Orientation Groundspeed Altitude Reporting Facility
EDT Latitude Longitude Course Direction KTS MPH feet Rate Location/Type
07:12AM 41.3153 -95.9117 325° Northwest 172 198 1,400  Level Minneapolis Center
07:13AM 41.3669 -95.9594 325° Northwest 216 249 3,800 1,740 Climbing Minneapolis Center
07:14AM 41.3617 -96.0481 265° West 243 280 5,400 2,700 Climbing Minneapolis Center
07:15AM 41.3347 -96.1436 249° West 255 293 9,400 2,700 Climbing Minneapolis Center
07:16AM 41.3175 -96.2536 258° West 292 336 10,900 1,980 Climbing Minneapolis Center
07:17AM 41.2956 -96.4083 259° West 347 399 13,900 2,460 Climbing Minneapolis Center
07:18AM 41.2761 -96.5386 259° West 357 411 16,500 2,340 Climbing Minneapolis Center
07:19AM 41.2556 -96.6725 259° West 366 421 18,700 1,980 Climbing Minneapolis Center
07:20AM 41.2356 -96.8083 259° West 373 429 20,600 1,980 Climbing Minneapolis Center
07:21AM 41.2142 -96.9486 259° West 382 440 22,700 1,800 Climbing Minneapolis Center
07:22AM 41.1922 -97.0856 258° West 384 442 24,300 1,500 Climbing Minneapolis Center
07:23AM 41.1703 -97.2292 259° West 393 452 25,800 1,380 Climbing Minneapolis Center
07:24AM 41.1447 -97.3886 258° West 398 458 27,200 1,440 Climbing Minneapolis Center
07:25AM 41.1208 -97.5364 258° West 406 467 28,800 1,560 Climbing Minneapolis Center
07:26AM 41.0986 -97.6794 258° West 400 460 30,400 1,320 Climbing Minneapolis Center
07:27AM 41.0761 -97.8200 258° West 392 451 31,600 960 Climbing Minneapolis Center
07:28AM 41.0572 -97.9314 257° West 389 448 32,400 960 Climbing Minneapolis Center
07:29AM 41.0308 -98.0992 258° West 387 445 33,600 780 Climbing Minneapolis Center
07:30AM 41.0072 -98.2372 257° West 385 443 34,000 120 Climbing Minneapolis Center
07:32AM 40.9800 -98.4039 258° West 384 442 34,000  Level Minneapolis Center
07:33AM 40.9550 -98.5489 257° West 380 437 34,000  Level Minneapolis Center
07:34AM 40.9325 -98.6856 258° West 380 437 34,000  Level Minneapolis Center
07:35AM 40.9094 -98.8211 257° West 379 436 34,000  Level Minneapolis Center
07:36AM 40.8861 -98.9575 257° West 381 438 34,000  Level Minneapolis Center
07:37AM 40.8619 -99.0953 257° West 382 440 34,000  Level Minneapolis Center
07:38AM 40.8336 -99.2622 257° West 386 444 34,000  Level Minneapolis Center
07:39AM 40.8036 -99.4294 257° West 389 448 34,000  Level Denver Center
07:40AM 40.7778 -99.5697 256° West 391 450 34,000  Level Denver Center
07:41AM 40.7522 -99.7108 257° West 395 455 34,000  Level Denver Center
07:42AM 40.7264 -99.8533 257° West 397 457 34,000  Level Denver Center
07:43AM 40.7022 -99.9894 257° West 397 457 34,000  Level Denver Center
07:44AM 40.6769 -100.1256 256° West 399 459 34,000  Level Denver Center
07:45AM 40.6483 -100.2853 257° West 399 459 34,000  Level Denver Center
07:46AM 40.6228 -100.4219 256° West 399 459 34,000  Level Denver Center
07:47AM 40.5958 -100.5583 255° West 400 460 34,000  Level Denver Center
07:48AM 40.5700 -100.6956 256° West 400 460 34,000  Level Denver Center
07:49AM 40.5444 -100.8314 256° West 396 456 34,000  Level Denver Center
07:50AM 40.5144 -100.9903 256° West 398 458 34,000  Level Denver Center
07:51AM 40.4886 -101.1267 256° West 400 460 34,000  Level Denver Center
07:52AM 40.4622 -101.2625 256° West 400 460 34,000  Level Denver Center
07:53AM 40.4358 -101.3961 255° West 395 455 34,000  Level Denver Center
07:54AM 40.4044 -101.5547 255° West 401 461 34,000  Level Denver Center
07:55AM 40.3767 -101.6897 255° West 402 463 34,000  Level Denver Center
07:56AM 40.3497 -101.8281 256° West 407 468 34,000  Level Denver Center
07:57AM 40.3178 -101.9881 255° West 407 468 34,000  Level Denver Center
07:58AM 40.2892 -102.1261 255° West 411 473 34,000  Level Denver Center
07:59AM 40.2611 -102.2650 255° West 412 474 34,000  Level Denver Center
08:00AM 40.2322 -102.4028 255° West 412 474 34,000  Level Denver Center
08:01AM 40.1989 -102.5650 255° West 412 474 34,000  Level Denver Center
08:02AM 40.1714 -102.6978 255° West 414 476 34,000  Level Denver Center
08:03AM 40.1428 -102.8444 256° West 414 476 34,000  Level Denver Center
08:04AM 40.1125 -102.9908 255° West 414 476 34,000  Level Denver Center
08:05AM 40.0800 -103.1358 254° West 413 475 34,000  Level Denver Center
08:06AM 40.0494 -103.2811 255° West 413 475 34,000  Level Denver Center
08:07AM 40.0181 -103.4258 254° West 411 473 34,000  Level Denver Center
08:08AM 39.9858 -103.5714 254° West 413 475 34,000  Level Denver Center
08:09AM 39.9525 -103.7150 253° West 412 474 34,000  Level Denver Center
08:10AM 39.9211 -103.8636 255° West 415 478 34,000  Level Denver Center
08:11AM 39.8897 -104.0069 254° West 406 467 34,000  Level Denver Center
08:12AM 39.8572 -104.1547 254° West 419 482 34,000  Level Denver Center
08:13AM 39.8233 -104.2997 253° West 415 478 34,000  Level Denver Center
08:14AM 39.7911 -104.4447 254° West 416 479 34,000  Level Denver Center
08:15AM 39.7567 -104.5900 253° West 419 482 34,000  Level Denver Center
08:16AM 39.7250 -104.7328 254° West 419 482 34,000  Level Denver Center
08:17AM 39.6919 -104.8758 253° West 414 476 34,000  Level Denver Center
08:18AM 39.6586 -105.0200 253° West 413 475 34,000 180 Level Denver Center
08:19AM 39.6236 -105.1656 253° West 419 482 34,400 900 Climbing Denver Center
08:20AM 39.5897 -105.3089 253° West 411 473 35,900 780 Climbing Denver Center
08:21AM 39.5569 -105.4481 253° West 401 461 36,000  Climbing Denver Center
08:22AM 39.5228 -105.5911 253° West 408 470 36,000  Level Denver Center
08:23AM 39.4831 -105.7550 253° West 406 467 36,000  Level Denver Center
08:24AM 39.4519 -105.8925 254° West 394 453 36,000  Level Denver Center
08:25AM 39.4189 -106.0314 253° West 397 457 36,000  Level Denver Center
08:26AM 39.3853 -106.1650 252° West 397 457 36,000  Level Denver Center
08:27AM 39.3547 -106.2944 253° West 394 453 36,000  Level Denver Center
08:28AM 39.3233 -106.4225 252° West 391 450 36,000  Level Denver Center
08:29AM 39.2861 -106.5714 252° West 389 448 36,000  Level Denver Center
08:30AM 39.2542 -106.6992 252° West 391 450 36,000  Level Denver Center
08:31AM 39.2231 -106.8236 252° West 383 441 36,000  Level Denver Center
08:32AM 39.1853 -106.9728 252° West 389 448 36,000  Level Denver Center
08:33AM 39.1531 -107.0989 252° West 388 447 36,000  Level Denver Center
08:34AM 39.1208 -107.2264 252° West 391 450 36,000  Level Denver Center
08:35AM 39.0817 -107.3761 251° West 394 453 36,000  Level Denver Center
08:36AM 39.0494 -107.5053 252° West 394 453 36,000  Level Denver Center
08:38AM 39.0153 -107.6328 251° West 393 452 36,000  Level Denver Center
08:39AM 38.9767 -107.7828 252° West 394 453 36,000  Level Denver Center
08:40AM 38.9442 -107.9083 252° West 389 448 36,000  Level Denver Center
08:41AM 38.9125 -108.0300 252° West 377 434 36,000  Level Denver Center
08:42AM 38.8756 -108.1722 252° West 375 432 36,000  Level Denver Center
08:43AM 38.8417 -108.2947 250° West 379 436 36,000  Level Denver Center
08:44AM 38.8083 -108.4208 251° West 386 444 36,000  Level Denver Center
08:45AM 38.7700 -108.5644 251° West 381 438 36,000  Level Denver Center
08:46AM 38.7372 -108.6897 251° West 383 441 36,000  Level Denver Center
08:47AM 38.7031 -108.8131 250° West 382 440 36,000  Level Denver Center
08:48AM 38.6636 -108.9558 251° West 381 438 36,000  Level Denver Center
08:49AM 38.6311 -109.0797 251° West 382 440 36,000  Level Denver Center
08:50AM 38.5964 -109.2011 250° West 378 435 36,000  Level Denver Center
08:51AM 38.5517 -109.3647 251° West 382 440 36,000  Level Denver Center
08:52AM 38.5178 -109.4856 250° West 379 436 36,000  Level Denver Center
08:53AM 38.4786 -109.6294 251° West 380 437 36,000  Level Denver Center
08:54AM 38.4344 -109.7464 244° Southwest 383 441 36,000  Level Denver Center
08:55AM 38.3878 -109.8589 242° Southwest 377 434 36,000  Level Denver Center
08:56AM 38.3333 -109.9906 242° Southwest 376 433 36,000  Level Denver Center
08:57AM 38.2883 -110.1053 243° Southwest 379 436 36,000  Level Denver Center
08:58AM 38.2350 -110.2389 243° Southwest 378 435 36,000  Level Denver Center
08:59AM 38.1878 -110.3517 242° Southwest 378 435 36,000  Level Denver Center
09:00AM 38.1417 -110.4650 243° Southwest 375 432 36,000  Level Denver Center
09:01AM 38.1033 -110.5603 243° Southwest 377 434 36,000  Level Salt Lake Center
09:01AM 38.0869 -110.5972 241° Southwest 378 435 36,000  Level Denver Center
09:02AM 38.0411 -110.7094 243° Southwest 374 430 36,000  Level Denver Center
09:03AM 37.9953 -110.8225 243° Southwest 376 433 36,000  Level Denver Center
09:04AM 37.9481 -110.9356 242° Southwest 375 432 36,000  Level Denver Center
09:05AM 37.8906 -111.0769 243° Southwest 377 434 36,000  Level Denver Center
09:06AM 37.8617 -111.1469 242° Southwest 375 432 36,000  Level Salt Lake Center
09:07AM 37.8122 -111.2642 242° Southwest 377 434 36,000  Level Salt Lake Center
09:08AM 37.7639 -111.3803 242° Southwest 375 432 36,000  Level Salt Lake Center
09:09AM 37.7147 -111.4981 242° Southwest 378 435 36,000 -360 Level Salt Lake Center
09:10AM 37.6650 -111.6133 241° Southwest 376 433 35,300 -840 Descending Salt Lake Center
09:11AM 37.6158 -111.7308 242° Southwest 377 434 34,400 -660 Descending Salt Lake Center
09:12AM 37.5669 -111.8447 242° Southwest 372 428 34,000 -240 Descending Salt Lake Center
09:13AM 37.5167 -111.9597 241° Southwest 373 429 34,000  Level Salt Lake Center
09:14AM 37.4681 -112.0747 242° Southwest 372 428 34,000  Level Salt Lake Center
09:15AM 37.4081 -112.2133 241° Southwest 375 432 34,000  Level Salt Lake Center
09:16AM 37.3581 -112.3292 242° Southwest 375 432 34,000  Level Salt Lake Center
09:17AM 37.3081 -112.4444 241° Southwest 374 430 34,000  Level Salt Lake Center
09:18AM 37.2569 -112.5600 241° Southwest 376 433 34,000  Level Salt Lake Center
09:19AM 37.2072 -112.6744 241° Southwest 373 429 34,000  Level Salt Lake Center
09:20AM 37.1564 -112.7872 241° Southwest 370 426 34,000  Level Salt Lake Center
09:21AM 37.1075 -112.8997 241° Southwest 368 423 34,000  Level Salt Lake Center
09:22AM 37.0578 -113.0100 241° Southwest 364 419 34,000  Level Salt Lake Center
09:23AM 37.0086 -113.1231 241° Southwest 367 422 34,000  Level Los Angeles Center
09:24AM 36.9575 -113.2344 240° Southwest 368 423 34,000  Level Los Angeles Center
09:25AM 36.9081 -113.3475 241° Southwest 370 426 34,000 -1,020 Level Los Angeles Center
09:26AM 36.8483 -113.4822 241° Southwest 370 426 32,000 -2,100 Descending Los Angeles Center
09:27AM 36.7981 -113.5931 240° Southwest 368 423 29,800 -2,160 Descending Los Angeles Center
09:28AM 36.7511 -113.6972 241° Southwest 348 400 27,700 -2,100 Descending Los Angeles Center
09:29AM 36.7064 -113.7967 241° Southwest 332 382 25,600 -2,040 Descending Los Angeles Center
09:30AM 36.6603 -113.8969 240° Southwest 334 384 23,600 -1,980 Descending Los Angeles Center
09:31AM 36.6172 -113.9922 241° Southwest 320 368 21,600 -1,920 Descending Los Angeles Center
09:32AM 36.5750 -114.0828 240° Southwest 306 352 19,800 -1,980 Descending Los Angeles Center
09:33AM 36.5308 -114.1825 241° Southwest 324 373 17,600 -2,340 Descending Los Angeles Center
09:34AM 36.5169 -114.2264 249° West 333 383 16,800 -2,220 Descending Los Angeles Center
09:34AM 36.4808 -114.2872 234° Southwest 315 362 15,400 -1,920 Descending Los Angeles Center
09:35AM 36.4656 -114.3350 248° West 298 343 14,500 -1,800 Descending Los Angeles Center
09:35AM 36.4408 -114.3775 234° Southwest 302 348 13,600 -1,740 Descending Los Angeles Center
09:36AM 36.4314 -114.4056 247° West 299 344 13,100 -1,620 Descending Los Angeles Center
09:36AM 36.3986 -114.4689 237° Southwest 303 349 12,000 -1,020 Descending Los Angeles Center
09:37AM 36.3697 -114.4883 208° Southwest 290 334 12,000 -240 Level Los Angeles Center
09:37AM 36.3294 -114.5136 207° Southwest 282 325 11,800 -840 Descending Los Angeles Center
09:38AM 36.3017 -114.5328 209° Southwest 253 291 11,100 -1,680 Descending Los Angeles Center
09:38AM 36.2722 -114.5592 216° Southwest 251 289 10,100 -1,920 Descending Los Angeles Center
09:39AM 36.2444 -114.5869 219° Southwest 256 295 9,200 -1,680 Descending Los Angeles Center
09:40AM 36.2125 -114.6086 209° Southwest 256 295 8,400 -1,200 Descending Los Angeles Center
09:40AM 36.1842 -114.6367 219° Southwest 259 298 8,000 -420 Descending Los Angeles Center
09:41AM 36.1672 -114.6708 238° Southwest 256 295 8,000  Level Los Angeles Center
09:41AM 36.1567 -114.7072 250° West 251 289 8,000  Level Los Angeles Center
09:42AM 36.1389 -114.7533 244° Southwest 259 298 8,000 -540 Level Los Angeles Center
09:42AM 36.1292 -114.7883 251° West 260 299 7,500 -1,500 Descending Los Angeles Center
09:43AM 36.1025 -114.8639 246° West 256 295 6,200 -1,260 Descending Los Angeles Center
09:44AM 36.0861 -114.9108 247° West 251 289 5,300 -1,020 Descending Los Angeles Center
09:45AM 36.0722 -114.9850 257° West 207 238 4,400 -1,020 Descending Los Angeles Center
09:46AM 36.0747 -115.0475 273° West 192 221 3,300 -960 Descending Los Angeles Center
09:47AM 36.0744 -115.1006 270° West 174 200 2,500 -660 Descending Los Angeles Center
09:48AM 36.0739 -115.1464 269° West 154 177 2,000 -540 Descending Los Angeles Center